Time;durP1;ratioP1;P1;durP2;ratioP2;P2;SDS_P1;SDS_P2;PMS_P1;PMS_P2;Temp;Humidity;BMP_temperature;BMP_pressure;BME280_temperature;BME280_humidity;BME280_pressure;Samples;Min_cycle;Max_cycle;Signal;HPM_P1;HPM_P2
2023/01/03 00:00:12;;;;;;;11.90;6.40;;;;;;;5.58;100.00;102526.28;4922982;29;20301;-68
2023/01/03 00:02:38;;;;;;;11.55;6.68;;;;;;;5.55;100.00;102516.59;4921059;29;20043;-68
2023/01/03 00:05:03;;;;;;;12.82;6.85;;;;;;;5.55;100.00;102514.03;4911277;29;20189;-68
2023/01/03 00:07:34;;;;;;;11.38;6.55;;;;;;;5.53;100.00;102514.69;4911419;29;20028;-68
2023/01/03 00:10:05;;;;;;;12.98;6.90;;;;;;;5.53;100.00;102514.69;4928009;29;20195;-68
2023/01/03 00:12:31;;;;;;;9.82;6.32;;;;;;;5.50;100.00;102507.63;4915784;29;20096;-68
2023/01/03 00:14:58;;;;;;;13.25;6.90;;;;;;;5.48;100.00;102508.31;4911206;29;20197;-69
2023/01/03 00:17:23;;;;;;;11.98;7.10;;;;;;;5.49;100.00;102504.91;4911106;29;20028;-68
2023/01/03 00:19:49;;;;;;;11.38;6.75;;;;;;;5.49;100.00;102504.91;4914151;29;20028;-68
2023/01/03 00:22:16;;;;;;;11.48;6.72;;;;;;;5.48;100.00;102511.78;4929041;29;20055;-68
2023/01/03 00:24:45;;;;;;;11.68;6.55;;;;;;;5.44;100.00;102511.47;4929832;29;20060;-68
2023/01/03 00:27:11;;;;;;;13.95;6.90;;;;;;;5.39;99.91;102504.28;4920483;29;20020;-68
2023/01/03 00:29:37;;;;;;;12.40;6.70;;;;;;;5.37;100.00;102507.53;4923997;29;20048;-68
2023/01/03 00:32:03;;;;;;;10.85;6.38;;;;;;;5.36;99.89;102506.66;4924872;29;20043;-68
2023/01/03 00:34:29;;;;;;;13.65;6.80;;;;;;;5.32;100.00;102506.31;4929049;29;20085;-68
2023/01/03 00:36:54;;;;;;;11.80;6.53;;;;;;;5.30;99.88;102513.97;4925912;29;20028;-68
2023/01/03 00:39:20;;;;;;;11.07;6.38;;;;;;;5.26;99.64;102514.53;4928486;29;20046;-68
2023/01/03 00:41:45;;;;;;;12.73;6.65;;;;;;;5.22;99.90;102525.44;4926670;29;20055;-68
2023/01/03 00:44:11;;;;;;;9.43;5.78;;;;;;;5.17;99.13;102519.94;4925002;29;20079;-68
2023/01/03 00:46:36;;;;;;;11.25;6.55;;;;;;;5.14;98.61;102526.53;4926323;29;20028;-68
2023/01/03 00:49:02;;;;;;;12.32;6.32;;;;;;;5.10;98.65;102524.53;4927288;29;20349;-68
2023/01/03 00:51:30;;;;;;;11.02;6.28;;;;;;;5.05;98.28;102530.28;4919199;29;20024;-68
2023/01/03 00:53:57;;;;;;;12.13;7.43;;;;;;;5.03;98.63;102533.53;4926872;29;20051;-68
2023/01/03 00:56:26;;;;;;;11.07;6.43;;;;;;;4.99;98.33;102531.50;4927749;29;20095;-68
2023/01/03 00:58:52;;;;;;;13.53;6.60;;;;;;;4.97;98.42;102530.50;4926423;29;20072;-68
2023/01/03 01:01:20;;;;;;;10.18;6.35;;;;;;;4.89;97.80;102527.34;4917295;29;20108;-68
2023/01/03 01:03:52;;;;;;;9.18;5.78;;;;;;;4.82;97.76;102535.41;4910882;29;20664;-68
2023/01/03 01:06:24;;;;;;;11.27;5.93;;;;;;;4.69;97.71;102539.69;4910109;29;20267;-68
2023/01/03 01:08:50;;;;;;;10.40;5.78;;;;;;;4.58;97.92;102537.97;4910173;29;20282;-68
2023/01/03 01:11:16;;;;;;;12.02;6.53;;;;;;;4.52;98.63;102550.41;4911187;29;20219;-68
2023/01/03 01:13:43;;;;;;;12.25;6.43;;;;;;;4.45;99.10;102540.41;4910013;29;20259;-68
2023/01/03 01:16:15;;;;;;;14.57;7.05;;;;;;;4.41;100.00;102548.69;4913593;29;20047;-68
2023/01/03 01:18:42;;;;;;;12.93;6.93;;;;;;;4.40;99.89;102559.81;4928909;29;20079;-68
2023/01/03 01:21:10;;;;;;;12.80;6.95;;;;;;;4.37;99.81;102557.00;4928116;29;20055;-68
2023/01/03 01:23:38;;;;;;;12.95;7.15;;;;;;;4.38;99.69;102558.78;4915550;29;20136;-68
2023/01/03 01:26:05;;;;;;;12.05;7.50;;;;;;;4.35;100.00;102567.19;4908547;29;20020;-68
2023/01/03 01:28:30;;;;;;;11.27;6.95;;;;;;;4.32;100.00;102572.13;4909596;29;20044;-68
2023/01/03 01:31:00;;;;;;;11.57;7.00;;;;;;;4.28;100.00;102576.13;4915217;29;20194;-68
2023/01/03 01:33:26;;;;;;;12.98;7.20;;;;;;;4.22;100.00;102565.34;4923231;29;20155;-68
2023/01/03 01:35:52;;;;;;;12.75;7.10;;;;;;;4.19;100.00;102567.69;4918355;29;20048;-68
2023/01/03 01:38:17;;;;;;;11.35;6.60;;;;;;;4.16;100.00;102572.63;4922289;29;20070;-68
2023/01/03 01:40:42;;;;;;;12.63;7.10;;;;;;;4.13;100.00;102572.38;4926360;29;20091;-68
2023/01/03 01:46:09;;;;;;;13.18;7.18;;;;;;;4.02;99.98;102576.69;4919678;29;20050;-68
2023/01/03 01:48:35;;;;;;;12.32;7.35;;;;;;;3.97;100.00;102581.50;4922388;29;20025;-68
2023/01/03 01:51:01;;;;;;;13.80;7.50;;;;;;;3.98;99.80;102588.47;4926441;29;20046;-68
2023/01/03 01:53:32;;;;;;;10.82;6.93;;;;;;;3.94;100.00;102591.59;4927058;29;20020;-68
2023/01/03 01:56:06;;;;;;;14.00;7.43;;;;;;;3.89;99.69;102585.16;4926458;29;20024;-68
2023/01/03 01:58:36;;;;;;;11.27;7.50;;;;;;;3.84;100.00;102596.78;4920532;29;20314;-68
2023/01/03 02:01:03;;;;;;;;;;;;;;;3.90;100.00;102601.53;4921140;29;20028;-68
2023/01/03 02:03:28;;;;;;;13.77;7.68;;;;;;;3.87;100.00;102599.59;4917538;29;19914;-68
2023/01/03 02:05:55;;;;;;;12.68;7.40;;;;;;;3.84;100.00;102594.22;4909080;29;20025;-68
2023/01/03 02:08:21;;;;;;;12.82;8.05;;;;;;;3.82;100.00;102594.09;4921629;29;20234;-68
2023/01/03 02:11:10;;;;;;;12.63;7.55;;;;;;;3.82;100.00;102595.75;4927152;29;20058;-68
2023/01/03 02:13:57;;;;;;;11.98;7.43;;;;;;;3.82;100.00;102588.00;4923128;29;20195;-68
2023/01/03 02:16:47;;;;;;;14.05;7.55;;;;;;;3.80;100.00;102587.91;4927806;29;20178;-68
2023/01/03 02:19:37;;;;;;;13.43;7.47;;;;;;;3.77;100.00;102581.63;4927815;29;20091;-68
2023/01/03 02:22:31;;;;;;;12.35;7.22;;;;;;;3.73;100.00;102592.47;4926658;29;20020;-68
2023/01/03 02:25:16;;;;;;;12.38;6.72;;;;;;;3.64;100.00;102596.09;4918203;29;20020;-68
2023/01/03 02:28:03;;;;;;;12.85;7.60;;;;;;;3.57;100.00;102591.22;4926585;29;20159;-68
2023/01/03 02:30:34;;;;;;;12.82;7.35;;;;;;;3.51;100.00;102585.59;4917613;29;20021;-68
2023/01/03 02:32:59;;;;;;;13.45;7.75;;;;;;;3.43;100.00;102595.28;4919996;29;20024;-68
2023/01/03 02:35:50;;;;;;;13.13;7.80;;;;;;;3.37;100.00;102599.03;4921999;29;20016;-68
2023/01/03 02:38:26;;;;;;;14.40;7.88;;;;;;;3.34;100.00;102596.22;4924999;29;20030;-68
2023/01/03 02:40:57;;;;;;;12.88;7.30;;;;;;;3.33;100.00;102587.56;4925675;29;20023;-68
2023/01/03 02:43:48;;;;;;;12.50;7.68;;;;;;;3.35;100.00;102592.88;4921129;29;20059;-68
2023/01/03 02:46:29;;;;;;;13.32;7.53;;;;;;;3.35;100.00;102588.59;4925309;29;20024;-68
2023/01/03 02:49:00;;;;;;;12.50;7.50;;;;;;;3.34;100.00;102589.38;4923447;29;20295;-68
2023/01/03 02:51:35;;;;;;;13.57;7.95;;;;;;;3.34;100.00;102586.78;4924508;29;20176;-68
2023/01/03 02:54:03;;;;;;;13.18;7.57;;;;;;;3.34;100.00;102584.22;4913161;29;20275;-68
2023/01/03 02:56:53;;;;;;;15.63;7.88;;;;;;;3.34;100.00;102591.06;4922062;29;20028;-68
2023/01/03 02:59:29;;;;;;;13.77;7.70;;;;;;;3.35;100.00;102590.28;4922238;29;20031;-68
2023/01/03 03:01:54;;;;;;;13.98;7.93;;;;;;;3.35;100.00;102582.56;4925644;29;20047;-68
2023/01/03 03:04:21;;;;;;;14.82;7.93;;;;;;;3.36;100.00;102585.25;4927765;29;20202;-68
2023/01/03 03:07:24;;;;;;;13.88;7.97;;;;;;;3.38;100.00;102587.97;4928911;29;20128;-68
2023/01/03 03:15:29;;;;;;;13.98;7.95;;;;;;;3.34;100.00;102591.06;4930992;29;20051;-68
2023/01/03 03:17:59;;;;;;;14.10;8.15;;;;;;;3.31;100.00;102592.59;4925660;29;20087;-68
2023/01/03 03:26:21;;;;;;;13.68;7.45;;;;;;;3.36;100.00;102602.38;4913364;29;20036;-68
2023/01/03 03:28:52;;;;;;;16.10;7.68;;;;;;;3.36;100.00;102593.00;4923503;29;20039;-68
2023/01/03 03:31:22;;;;;;;12.85;7.40;;;;;;;3.35;100.00;102587.72;4928552;29;20087;-68
2023/01/03 03:34:09;;;;;;;13.50;7.57;;;;;;;3.37;100.00;102589.59;4926798;29;20024;-68
2023/01/03 03:36:54;;;;;;;13.48;6.93;;;;;;;3.38;100.00;102591.41;4920347;29;20043;-68
2023/01/03 03:45:13;;;;;;;11.70;6.80;;;;;;;3.37;100.00;102593.88;4913809;29;20104;-68
2023/01/03 03:47:50;;;;;;;15.30;7.43;;;;;;;3.31;100.00;102579.69;4918420;29;20034;-68
2023/01/03 03:50:38;;;;;;;11.82;7.35;;;;;;;3.30;100.00;102587.31;4928305;29;20075;-68
2023/01/03 03:53:07;;;;;;;13.00;7.57;;;;;;;3.28;100.00;102588.88;4929351;29;20255;-68
2023/01/03 03:55:41;;;;;;;14.07;6.90;;;;;;;3.23;100.00;102587.59;4922372;29;20032;-68
2023/01/03 03:58:12;;;;;;;14.07;7.32;;;;;;;3.20;100.00;102593.41;4915433;29;20036;-68
2023/01/03 04:00:40;;;;;;;15.45;7.38;;;;;;;3.19;100.00;102585.56;4926800;29;20075;-68
2023/01/03 04:03:08;;;;;;;13.55;7.20;;;;;;;3.18;100.00;102592.38;4928913;29;20028;-68
2023/01/03 04:05:40;;;;;;;12.90;7.25;;;;;;;3.17;100.00;102592.25;4927243;29;20031;-68
2023/01/03 04:08:06;;;;;;;12.77;7.35;;;;;;;3.18;100.00;102600.09;4923478;29;20092;-68
2023/01/03 04:10:31;;;;;;;12.90;6.72;;;;;;;3.19;100.00;102595.88;4927888;29;20184;-68
2023/01/03 04:12:56;;;;;;;13.35;7.00;;;;;;;3.20;100.00;102601.16;4928973;29;20314;-68
2023/01/03 04:15:22;;;;;;;13.63;7.38;;;;;;;3.21;100.00;102596.88;4925213;29;20101;-68
2023/01/03 04:17:47;;;;;;;12.13;6.78;;;;;;;3.22;100.00;102597.00;4929382;29;20132;-68
2023/01/03 04:20:13;;;;;;;12.68;6.88;;;;;;;3.22;100.00;102591.84;4927152;29;20136;-68
2023/01/03 04:22:39;;;;;;;12.90;7.55;;;;;;;3.22;100.00;102589.28;4922793;29;20042;-68
2023/01/03 04:25:05;;;;;;;13.18;7.40;;;;;;;3.23;100.00;102587.59;4923966;29;20091;-68
2023/01/03 04:27:30;;;;;;;12.77;7.60;;;;;;;3.22;100.00;102589.28;4929309;29;20259;-68
2023/01/03 04:29:55;;;;;;;14.25;7.22;;;;;;;3.21;100.00;102582.31;4915425;29;20062;-68
2023/01/03 04:32:21;;;;;;;13.15;7.22;;;;;;;3.20;100.00;102587.34;4926668;29;20012;-68
2023/01/03 04:34:46;;;;;;;11.57;7.28;;;;;;;3.18;100.00;102591.47;4927315;29;20046;-68
2023/01/03 04:37:12;;;;;;;12.48;7.13;;;;;;;3.16;100.00;102585.28;4926624;29;20262;-68
2023/01/03 04:39:37;;;;;;;15.32;7.63;;;;;;;3.16;100.00;102588.78;4927831;29;20027;-68
2023/01/03 04:44:00;;;;;;;12.73;7.57;;;;;;;3.12;100.00;102591.88;4916313;29;20092;-68
2023/01/03 04:44:48;;;;;;;15.35;8.48;;;;;;;3.11;100.00;102590.06;4924216;29;20247;-68
2023/01/03 04:47:13;;;;;;;18.17;9.18;;;;;;;3.08;100.00;102590.72;4926727;29;20270;-68
2023/01/03 04:49:38;;;;;;;16.58;8.02;;;;;;;3.08;100.00;102594.97;4918966;29;20318;-68
2023/01/03 04:52:04;;;;;;;13.88;8.45;;;;;;;3.05;100.00;102587.88;4920683;29;20055;-68
2023/01/03 04:54:29;;;;;;;17.27;9.07;;;;;;;3.02;100.00;102590.22;4927027;29;20024;-68
2023/01/03 04:56:54;;;;;;;17.70;9.35;;;;;;;3.01;100.00;102595.25;4920728;29;20032;-68
2023/01/03 04:59:20;;;;;;;18.17;9.82;;;;;;;2.98;100.00;102592.41;4925447;29;20095;-68
2023/01/03 05:01:50;;;;;;;15.25;8.88;;;;;;;2.96;100.00;102590.59;4925392;29;20094;-68
2023/01/03 05:04:16;;;;;;;19.05;10.10;;;;;;;2.98;100.00;102593.31;4922501;29;20051;-68
2023/01/03 05:06:41;;;;;;;19.23;9.65;;;;;;;2.97;100.00;102596.69;4926407;29;20267;-68
2023/01/03 05:09:07;;;;;;;16.75;9.38;;;;;;;2.98;100.00;102593.31;4927544;29;20259;-68
2023/01/03 05:11:32;;;;;;;18.35;9.55;;;;;;;2.98;100.00;102584.69;4927522;29;20020;-68
2023/01/03 05:13:57;;;;;;;18.20;9.10;;;;;;;2.94;100.00;102575.78;4918232;29;20028;-68
2023/01/03 05:16:23;;;;;;;20.85;9.60;;;;;;;2.92;100.00;102573.09;4928878;29;20188;-68
2023/01/03 05:18:50;;;;;;;19.20;9.93;;;;;;;2.93;100.00;102584.31;4929011;29;20068;-68
2023/01/03 05:26:47;;;;;;;19.70;9.05;;;;;;;3.00;100.00;102577.97;4909700;29;20031;-68
2023/01/03 05:29:15;;;;;;;13.73;7.90;;;;;;;3.00;100.00;102572.81;4909742;29;20166;-68
2023/01/03 05:31:40;;;;;;;17.40;8.85;;;;;;;2.97;100.00;102578.66;4916980;29;20020;-68
2023/01/03 05:34:05;;;;;;;13.35;7.88;;;;;;;2.98;100.00;102574.38;4927306;29;20016;-68
2023/01/03 05:36:31;;;;;;;16.45;7.88;;;;;;;3.00;100.00;102575.41;4927901;29;20196;-68
2023/01/03 05:38:56;;;;;;;15.02;7.78;;;;;;;3.01;100.00;102572.94;4924380;29;20092;-68
2023/01/03 05:44:05;;;;;;;16.33;8.25;;;;;;;3.07;100.00;102570.91;4919747;29;20088;-68
2023/01/03 05:46:31;;;;;;;13.48;7.32;;;;;;;3.07;100.00;102563.19;4918315;29;20099;-68
2023/01/03 05:48:57;;;;;;;14.25;7.53;;;;;;;3.10;100.00;102557.34;4924699;29;20039;-68
2023/01/03 05:51:22;;;;;;;16.02;7.90;;;;;;;3.13;100.00;102567.94;4926995;29;20337;-68
2023/01/03 05:53:47;;;;;;;14.35;6.72;;;;;;;3.13;100.00;102563.66;4926497;29;20058;-68
2023/01/03 05:56:13;;;;;;;15.10;7.68;;;;;;;3.17;100.00;102562.22;4925968;29;20256;-68
2023/01/03 05:58:41;;;;;;;15.02;7.38;;;;;;;3.21;100.00;102564.28;4927007;29;20067;-68
2023/01/03 06:01:10;;;;;;;12.98;6.85;;;;;;;3.26;100.00;102560.41;4918794;29;20032;-68
2023/01/03 06:03:35;;;;;;;15.02;7.28;;;;;;;3.29;100.00;102559.78;4919022;29;20091;-68
2023/01/03 06:06:05;;;;;;;15.27;6.95;;;;;;;3.33;100.00;102555.75;4924337;29;20024;-68
2023/01/03 06:08:31;;;;;;;12.65;6.50;;;;;;;3.37;100.00;102557.81;4925708;29;20059;-68
2023/01/03 06:10:56;;;;;;;12.90;6.50;;;;;;;3.38;100.00;102557.03;4925339;29;20024;-68
2023/01/03 06:13:22;;;;;;;14.30;7.22;;;;;;;3.42;100.00;102548.78;4926586;29;20024;-68
2023/01/03 06:17:53;;;;;;;15.25;7.28;;;;;;;3.46;100.00;102554.28;4926249;29;20286;-68
2023/01/03 06:18:34;;;;;;;11.68;6.28;;;;;;;3.53;100.00;102547.03;4921625;29;20032;-68
2023/01/03 06:21:02;;;;;;;11.98;6.43;;;;;;;3.58;100.00;102554.38;4925789;29;20026;-68
2023/01/03 06:23:27;;;;;;;13.70;7.00;;;;;;;3.63;100.00;102552.16;4925356;29;20020;-68
2023/01/03 06:25:53;;;;;;;13.65;7.03;;;;;;;3.70;100.00;102550.97;4913798;29;20058;-68
2023/01/03 06:28:19;;;;;;;13.52;6.55;;;;;;;3.76;100.00;102551.44;4915595;29;20031;-68
2023/01/03 06:30:44;;;;;;;12.02;6.70;;;;;;;3.80;100.00;102549.22;4926348;29;20087;-68
2023/01/03 06:33:10;;;;;;;12.02;7.10;;;;;;;3.84;100.00;102545.22;4925894;29;20032;-68
2023/01/03 06:35:37;;;;;;;13.35;7.63;;;;;;;3.87;100.00;102541.97;4924970;29;20105;-68
2023/01/03 06:38:02;;;;;;;13.90;8.20;;;;;;;3.91;100.00;102544.94;4926708;29;20289;-68
2023/01/03 06:40:28;;;;;;;13.98;7.60;;;;;;;3.94;100.00;102550.31;4926066;29;20036;-68
2023/01/03 06:42:53;;;;;;;14.77;7.20;;;;;;;3.93;100.00;102540.78;4924394;29;20087;-68
2023/01/03 06:53:37;;;;;;;12.80;6.97;;;;;;;3.90;100.00;102557.69;4921888;29;20187;-68
2023/01/03 06:56:04;;;;;;;13.38;7.40;;;;;;;3.86;100.00;102551.38;4913479;29;20028;-68
2023/01/03 06:58:29;;;;;;;11.50;6.50;;;;;;;3.82;100.00;102532.22;4918918;29;20100;-68
2023/01/03 07:00:57;;;;;;;12.35;6.90;;;;;;;3.76;100.00;102523.09;4926373;29;20020;-68
2023/01/03 07:03:23;;;;;;;13.18;6.55;;;;;;;3.78;100.00;102521.50;4925680;29;20049;-68
2023/01/03 07:05:48;;;;;;;12.70;6.78;;;;;;;3.79;100.00;102519.06;4924510;29;20258;-68
2023/01/03 07:08:14;;;;;;;14.07;6.85;;;;;;;3.83;100.00;102523.69;4915239;29;20119;-68
2023/01/03 07:10:39;;;;;;;11.85;6.40;;;;;;;3.89;100.00;102537.84;4915215;29;20254;-68
2023/01/03 07:15:48;;;;;;;12.60;6.22;;;;;;;3.97;100.00;102535.06;4915977;29;20035;-68
2023/01/03 07:18:14;;;;;;;11.82;6.68;;;;;;;4.00;100.00;102550.78;4908044;29;20028;-68
2023/01/03 07:20:41;;;;;;;11.88;6.45;;;;;;;4.04;100.00;102589.72;4908316;29;20065;-68
2023/01/03 07:23:06;;;;;;;13.27;6.45;;;;;;;4.07;100.00;102574.47;4907987;29;20083;-68
2023/01/03 07:25:32;;;;;;;13.05;6.60;;;;;;;4.12;100.00;102578.31;4908196;29;20048;-68
2023/01/03 07:27:57;;;;;;;12.48;6.70;;;;;;;4.17;100.00;102574.41;4912902;29;20279;-68
2023/01/03 07:30:22;;;;;;;12.82;6.50;;;;;;;4.24;100.00;102570.63;4912948;29;20027;-69
2023/01/03 07:32:47;;;;;;;13.10;6.95;;;;;;;4.32;100.00;102572.13;4925672;29;20024;-68
2023/01/03 07:35:13;;;;;;;14.27;6.97;;;;;;;4.39;100.00;102570.91;4925838;29;20256;-68
2023/01/03 07:37:38;;;;;;;13.45;6.60;;;;;;;4.44;100.00;102567.00;4925983;29;20084;-68
2023/01/03 07:40:04;;;;;;;11.32;6.75;;;;;;;4.50;100.00;102568.38;4908171;29;20037;-69
2023/01/03 07:45:13;;;;;;;14.82;7.45;;;;;;;4.60;100.00;102562.22;4924844;29;20330;-68
2023/01/03 07:47:45;;;;;;;14.25;7.40;;;;;;;4.62;100.00;102564.91;4923859;29;20024;-68
2023/01/03 07:50:11;;;;;;;17.10;7.63;;;;;;;4.63;100.00;102562.44;4918818;29;20267;-68
2023/01/03 07:52:36;;;;;;;14.30;6.95;;;;;;;4.66;100.00;102567.84;4917419;29;20169;-68
2023/01/03 07:55:02;;;;;;;13.05;6.90;;;;;;;4.66;100.00;102573.03;4910125;29;20017;-68
2023/01/03 07:57:28;;;;;;;14.77;7.47;;;;;;;4.68;100.00;102566.28;4919021;29;20032;-68
2023/01/03 07:59:53;;;;;;;15.25;7.80;;;;;;;4.69;100.00;102583.56;4923680;29;20048;-68
2023/01/03 08:02:19;;;;;;;16.50;7.65;;;;;;;4.70;100.00;102585.34;4925761;29;20031;-68
2023/01/03 08:04:44;;;;;;;14.73;7.18;;;;;;;4.71;100.00;102581.09;4928723;29;20094;-68
2023/01/03 08:07:09;;;;;;;14.20;7.57;;;;;;;4.69;100.00;102582.66;4929365;29;20024;-68
2023/01/03 08:15:03;;;;;;;14.45;7.18;;;;;;;4.69;100.00;102599.06;4928651;29;20031;-68
2023/01/03 08:17:28;;;;;;;16.38;8.40;;;;;;;4.70;100.00;102600.84;4923019;29;20028;-68
2023/01/03 08:19:54;;;;;;;17.80;8.43;;;;;;;4.74;100.00;102607.16;4924302;29;20092;-68
2023/01/03 08:22:19;;;;;;;16.92;8.77;;;;;;;4.76;100.00;102599.53;4927483;29;20196;-68
2023/01/03 08:24:44;;;;;;;15.05;8.57;;;;;;;4.81;100.00;102608.53;4925568;29;20027;-68
2023/01/03 08:27:09;;;;;;;16.25;7.85;;;;;;;4.84;100.00;102613.94;4925059;29;20179;-69
2023/01/03 08:29:35;;;;;;;16.05;8.18;;;;;;;4.86;100.00;102605.47;4925299;29;20099;-68
2023/01/03 08:32:01;;;;;;;16.08;7.63;;;;;;;4.89;100.00;102607.41;4925656;29;20275;-69
2023/01/03 08:34:32;;;;;;;16.30;8.13;;;;;;;4.92;100.00;102602.47;4921826;29;20055;-68
2023/01/03 08:37:06;;;;;;;16.48;8.13;;;;;;;4.95;100.00;102602.69;4921703;29;20283;-69
2023/01/03 08:39:38;;;;;;;17.17;8.60;;;;;;;4.99;100.00;102603.84;4919275;29;20031;-68
2023/01/03 08:42:06;;;;;;;15.65;8.13;;;;;;;5.02;100.00;102611.81;4920811;29;20023;-68
2023/01/03 08:44:32;;;;;;;16.63;8.10;;;;;;;5.04;100.00;102616.31;4921533;29;20108;-68
2023/01/03 08:46:59;;;;;;;16.17;8.40;;;;;;;5.07;100.00;102620.81;4923665;29;20032;-68
2023/01/03 08:49:24;;;;;;;15.90;8.60;;;;;;;5.12;100.00;102621.16;4921192;29;20227;-68
2023/01/03 08:51:50;;;;;;;17.83;8.50;;;;;;;5.14;100.00;102629.91;4917125;29;20287;-69
2023/01/03 08:54:15;;;;;;;22.33;8.93;;;;;;;5.19;100.00;102628.56;4921602;29;20039;-68
2023/01/03 08:56:40;;;;;;;17.63;8.23;;;;;;;5.22;100.00;102628.78;4923246;29;20039;-68
2023/01/03 08:59:06;;;;;;;18.30;8.70;;;;;;;5.25;100.00;102626.44;4917960;29;20036;-68
2023/01/03 09:01:31;;;;;;;17.83;9.00;;;;;;;5.30;100.00;102626.78;4928251;29;20051;-68
2023/01/03 09:03:56;;;;;;;17.77;8.32;;;;;;;5.35;100.00;102628.91;4924022;29;20035;-68
2023/01/03 09:06:21;;;;;;;18.65;8.70;;;;;;;5.37;100.00;102624.78;4924932;29;20151;-68
2023/01/03 09:08:47;;;;;;;22.02;9.32;;;;;;;5.42;100.00;102631.94;4924256;29;20024;-68
2023/01/03 09:11:12;;;;;;;16.63;8.63;;;;;;;5.45;100.00;102633.09;4923276;29;20046;-68
2023/01/03 09:13:38;;;;;;;19.63;9.07;;;;;;;5.47;100.00;102628.03;4926439;29;20056;-68
2023/01/03 09:16:05;;;;;;;19.00;9.18;;;;;;;5.49;100.00;102637.69;4923005;29;20094;-68
2023/01/03 09:18:31;;;;;;;20.45;8.98;;;;;;;5.53;100.00;102636.22;4924970;29;20056;-69
2023/01/03 09:20:57;;;;;;;19.13;9.07;;;;;;;5.55;100.00;102637.25;4924986;29;20036;-68
2023/01/03 09:23:22;;;;;;;19.35;9.77;;;;;;;5.57;100.00;102640.81;4924160;29;20028;-68
2023/01/03 09:25:47;;;;;;;18.58;9.20;;;;;;;5.60;100.00;102633.28;4908994;29;20020;-68
2023/01/03 09:28:13;;;;;;;20.17;9.55;;;;;;;5.64;100.00;102635.31;4912347;29;20170;-68
2023/01/03 09:30:38;;;;;;;17.38;9.07;;;;;;;5.66;100.00;102631.16;4909960;29;20047;-68
2023/01/03 09:33:04;;;;;;;20.27;9.50;;;;;;;5.70;100.00;102640.03;4909628;29;20167;-68
2023/01/03 09:35:30;;;;;;;18.67;9.60;;;;;;;5.72;100.00;102635.88;4909515;29;20290;-68
2023/01/03 09:37:55;;;;;;;21.58;9.27;;;;;;;5.74;100.00;102640.38;4923241;29;20020;-68
2023/01/03 09:40:21;;;;;;;18.30;8.93;;;;;;;5.77;100.00;102643.97;4915493;29;20115;-68
2023/01/03 09:45:33;;;;;;;20.05;8.73;;;;;;;5.81;100.00;102636.53;4927609;29;20022;-68
2023/01/03 09:48:01;;;;;;;17.17;8.23;;;;;;;5.84;100.00;102643.63;4913678;29;20031;-68
2023/01/03 09:50:29;;;;;;;15.55;8.07;;;;;;;5.87;100.00;102631.81;4909308;29;20040;-68
2023/01/03 10:03:42;;;;;;;17.98;8.80;;;;;;;5.93;100.00;102641.69;4909792;29;20073;-68
2023/01/03 10:05:00;;;;;;;17.50;7.50;;;;;;;6.01;100.00;102632.84;4909081;29;20035;-68
2023/01/03 10:07:52;;;;;;;20.50;8.15;;;;;;;6.04;100.00;102622.69;4909113;29;20025;-68
2023/01/03 10:10:45;;;;;;;16.42;7.97;;;;;;;6.08;100.00;102619.53;4908939;29;20028;-68
2023/01/03 10:13:22;;;;;;;14.88;7.63;;;;;;;6.12;100.00;102624.94;4923079;29;20079;-68
2023/01/03 10:16:25;;;;;;;15.05;7.70;;;;;;;6.17;100.00;102623.53;4921184;29;20032;-68
2023/01/03 10:19:26;;;;;;;14.32;7.22;;;;;;;6.22;100.00;102627.38;4916487;29;20041;-68
2023/01/03 10:22:15;;;;;;;16.48;8.02;;;;;;;6.24;100.00;102629.28;4909467;29;20260;-68
2023/01/03 10:24:55;;;;;;;18.57;7.87;;;;;;;6.29;100.00;102626.13;4908764;29;20025;-68
2023/01/03 10:27:25;;;;;;;15.15;7.20;;;;;;;6.31;100.00;102637.47;4917006;29;20028;-68
2023/01/03 10:29:54;;;;;;;13.27;7.15;;;;;;;6.33;100.00;102629.03;4926432;29;20028;-68
2023/01/03 10:32:54;;;;;;;15.05;7.57;;;;;;;6.36;100.00;102633.53;4927450;29;20016;-68
2023/01/03 10:35:38;;;;;;;13.93;6.63;;;;;;;6.38;100.00;102626.75;4924466;29;20036;-68
2023/01/03 10:38:03;;;;;;;16.08;7.05;;;;;;;6.42;100.00;102631.34;4908806;29;20035;-68
2023/01/03 10:40:35;;;;;;;16.08;7.40;;;;;;;6.46;100.00;102632.44;4921144;29;20024;-68
2023/01/03 10:43:09;;;;;;;13.88;6.55;;;;;;;6.49;100.00;102632.66;4914770;29;20029;-68
2023/01/03 10:45:49;;;;;;;13.30;6.93;;;;;;;6.54;100.00;102626.13;4924872;29;20024;-68
2023/01/03 10:48:14;;;;;;;14.68;6.47;;;;;;;6.56;100.00;102625.44;4927435;29;20223;-68
2023/01/03 10:50:39;;;;;;;13.40;6.75;;;;;;;6.59;100.00;102614.41;4927439;29;20024;-68
2023/01/03 10:53:07;;;;;;;12.27;6.28;;;;;;;6.61;100.00;102607.63;4927570;29;20024;-68
2023/01/03 10:55:42;;;;;;;15.00;6.70;;;;;;;6.67;100.00;102612.31;4912230;29;20099;-68
2023/01/03 10:58:25;;;;;;;15.85;6.93;;;;;;;6.70;100.00;102618.59;4908246;29;20024;-68
2023/01/03 11:00:52;;;;;;;13.07;6.68;;;;;;;6.73;100.00;102620.50;4907172;29;20025;-68
2023/01/03 11:03:21;;;;;;;12.90;6.70;;;;;;;6.76;100.00;102612.94;4911184;29;20029;-68
2023/01/03 11:06:08;;;;;;;14.18;6.95;;;;;;;6.78;100.00;102608.75;4908315;29;20040;-68
2023/01/03 11:08:46;;;;;;;14.90;6.82;;;;;;;6.82;100.00;102612.44;4907342;29;20047;-68
2023/01/03 11:11:31;;;;;;;13.73;6.22;;;;;;;6.83;100.00;102617.72;4915897;29;20079;-68
2023/01/03 11:14:06;;;;;;;12.50;6.53;;;;;;;6.84;100.00;102616.94;4922924;29;20024;-68
2023/01/03 11:16:31;;;;;;;14.48;6.38;;;;;;;6.85;100.00;102612.66;4908253;29;20024;-68
2023/01/03 11:19:03;;;;;;;12.88;6.45;;;;;;;6.86;100.00;102612.75;4919839;29;20067;-68
2023/01/03 11:22:13;;;;;;;14.57;7.00;;;;;;;6.87;100.00;102611.97;4911726;29;20076;-68
2023/01/03 11:25:08;;;;;;;11.93;6.38;;;;;;;6.90;100.00;102606.09;4908621;29;20021;-68
2023/01/03 11:27:59;;;;;;;13.10;6.20;;;;;;;6.90;100.00;102603.50;4919431;29;20024;-68
2023/01/03 11:30:45;;;;;;;13.30;6.45;;;;;;;6.91;100.00;102603.59;4917760;29;20027;-68
2023/01/03 11:33:36;;;;;;;15.10;6.30;;;;;;;6.94;100.00;102597.72;4911909;29;20077;-68
2023/01/03 11:36:19;;;;;;;13.52;6.63;;;;;;;6.94;100.00;102596.03;4916987;29;20166;-64
2023/01/03 11:38:59;;;;;;;14.98;6.38;;;;;;;6.95;100.00;102607.28;4915821;29;20032;-62
2023/01/03 11:41:55;;;;;;;12.45;5.80;;;;;;;6.95;100.00;102604.69;4914235;29;20032;-61
2023/01/03 11:44:26;;;;;;;14.25;6.97;;;;;;;6.95;100.00;102603.00;4911983;29;20287;-61
2023/01/03 11:47:22;;;;;;;11.05;6.35;;;;;;;6.92;100.00;102597.63;4911529;29;20048;-62
2023/01/03 11:50:14;;;;;;;15.73;6.88;;;;;;;6.90;100.00;102601.81;4911511;29;20297;-62
2023/01/03 11:52:42;;;;;;;14.35;7.40;;;;;;;6.90;100.00;102600.91;4916027;29;20084;-63
2023/01/03 11:55:32;;;;;;;14.65;7.28;;;;;;;6.88;100.00;102594.72;4928155;29;20075;-63
2023/01/03 11:58:01;;;;;;;14.25;6.60;;;;;;;6.89;100.00;102591.34;4927856;29;20242;-62
2023/01/03 12:00:48;;;;;;;13.55;7.03;;;;;;;6.89;100.00;102589.63;4921041;29;20051;-63
2023/01/03 12:03:33;;;;;;;12.25;6.50;;;;;;;6.89;100.00;102580.97;4925968;29;20190;-63
2023/01/03 12:06:27;;;;;;;11.38;6.47;;;;;;;6.94;100.00;102589.97;4927533;29;20256;-63
2023/01/03 12:09:19;;;;;;;15.30;7.32;;;;;;;6.98;100.00;102586.78;4921026;29;20255;-63
2023/01/03 12:11:47;;;;;;;11.55;5.90;;;;;;;7.02;100.00;102572.31;4915314;29;20038;-63
2023/01/03 12:14:36;;;;;;;10.60;5.45;;;;;;;7.07;100.00;102564.06;4914428;29;20025;-62
2023/01/03 12:17:20;;;;;;;9.48;5.05;;;;;;;7.09;100.00;102558.97;4926095;29;20107;-63
2023/01/03 12:19:54;;;;;;;10.35;5.50;;;;;;;7.13;100.00;102554.06;4927013;29;20285;-63
2023/01/03 12:22:35;;;;;;;8.60;4.90;;;;;;;7.17;99.56;102552.59;4923106;29;20091;-63
2023/01/03 12:25:22;;;;;;;10.07;4.72;;;;;;;7.22;100.00;102552.88;4924677;29;20293;-63
2023/01/03 12:27:53;;;;;;;8.57;4.53;;;;;;;7.25;98.30;102553.97;4920273;29;20034;-63
2023/01/03 12:30:34;;;;;;;8.75;4.57;;;;;;;7.29;99.44;102545.59;4929377;29;20044;-63
2023/01/03 12:33:19;;;;;;;10.75;5.07;;;;;;;7.33;98.61;102554.50;4923302;29;20090;-63
2023/01/03 12:35:49;;;;;;;9.20;4.72;;;;;;;7.38;98.91;102553.06;4915732;29;20076;-62